Chambery, France

8:41 AM CET on February 10, 2016 (GMT +0100)
Meythet | | Change Station
CLOSE
Current Station
Airport
Location: Annecy-Haute-Savoie-Mont,
Elevation: 1519 ft
Nearby Weather Stations

Elev 1519 ft 45.93 °N, 6.11 °E | Updated 11 minutes ago

Mostly Cloudy
Mostly Cloudy
36 °F
Feels Like 30 °F
N
7
Wind Variable Wind from SSW

Today
High -- | Low -- °F
--% Chance of Precip.
Yesterday
High -- | Low -- °F
Precip. -- in
Pressure 29.68 in
Visibility 6.2 miles
Clouds Few 3500 ft
Mostly Cloudy 4700 ft
Mostly Cloudy 5600 ft
Windchill 30 °F
Dew Point 27 °F
Humidity 70%
Rainfall 0.00 in
Snow Depth Not available.
7:47 AM 5:55 PM
Waxing Crescent, 4% visible
METAR LFLP 100730Z AUTO 21006KT 180V240 9999 FEW035 BKN047 BKN056 02/M03 Q1005
Pressure 29.68 in
Visibility 6.2 miles
Clouds Few 3500 ft
Mostly Cloudy 4700 ft
Mostly Cloudy 5600 ft
Windchill 30 °F
Dew Point 27 °F
Humidity 70%
Rainfall 0.00 in
Snow Depth Not available.
7:47 AM 5:55 PM
Waxing Crescent, 4% visible
METAR LFLP 100730Z AUTO 21006KT 180V240 9999 FEW035 BKN047 BKN056 02/M03 Q1005

10-Day Weather Forecast

Almanac

Astronomy

Feb. 10, 2016 Rise Set
Actual Time
Civil Twilight
Nautical Twilight
Astronomical Twilight
Moon
Length of Visible Light
Length of Day
Tomorrow will be .
, % of the Moon is Illuminated

Today's Extremes

Country Highs Country Lows

Community

WunderPhotos

Upload Photos

1,891,826 photos uploaded!

WunderBlog® & News

Nearby

Air Quality

  Air Quality AQ Index Pollutant
Not available.

Snow Depth

Station Depth Elevation

Earthquake Activity

City Distance Mag. Time & Date
Minimum magnitude displayed is 2.5.

Coastal Water Temperatures

Place Temperature

Stations

Nearby Weather Stations

Station Location Temp. Windchill Dew Point Humidity Wind Precip. Elev Updated Type